createdAt,value
2018-01-23T00:01:11.727Z,6.90
2018-01-23T00:03:42.127Z,10.20
2018-01-23T00:06:11.760Z,6.77
2018-01-23T00:08:41.297Z,4.07
2018-01-23T00:11:11.133Z,6.87
2018-01-23T00:13:41.505Z,6.43
2018-01-23T00:16:11.059Z,7.90
2018-01-23T00:18:40.626Z,5.30
2018-01-23T00:21:11.094Z,3.97
2018-01-23T00:23:44.695Z,5.90
2018-01-23T00:26:14.236Z,8.27
2018-01-23T00:28:43.756Z,5.77
2018-01-23T00:31:13.512Z,4.80
2018-01-23T00:33:42.993Z,2.97
2018-01-23T00:36:12.513Z,7.03
2018-01-23T00:38:41.993Z,3.70
2018-01-23T00:41:11.537Z,3.73
2018-01-23T00:43:41.065Z,5.20
2018-01-23T00:46:10.609Z,4.80
2018-01-23T00:48:40.132Z,2.30
2018-01-23T00:51:15.808Z,2.60
2018-01-23T00:53:45.303Z,2.10
2018-01-23T00:56:14.808Z,2.30
2018-01-23T00:58:48.180Z,2.43
2018-01-23T01:01:17.717Z,5.00
2018-01-23T01:03:47.594Z,6.57
2018-01-23T01:06:17.090Z,6.07
2018-01-23T01:08:46.817Z,4.83
2018-01-23T01:11:16.344Z,4.70
2018-01-23T01:13:45.875Z,3.20
2018-01-23T01:16:15.373Z,1.60
2018-01-23T01:18:45.475Z,2.47
2018-01-23T01:21:15.256Z,4.07
2018-01-23T01:23:44.882Z,2.50
2018-01-23T01:26:14.680Z,1.57
2018-01-23T01:28:44.199Z,2.17
2018-01-23T01:31:14.694Z,2.07
2018-01-23T01:33:48.904Z,2.33
2018-01-23T01:36:18.521Z,4.13
2018-01-23T01:38:48.065Z,2.30
2018-01-23T01:41:17.590Z,2.03
2018-01-23T01:43:47.082Z,2.17
2018-01-23T01:46:16.606Z,1.83
2018-01-23T01:48:52.277Z,2.87
2018-01-23T01:51:21.760Z,4.30
2018-01-23T01:53:51.318Z,1.80
2018-01-23T01:56:20.882Z,1.93
2018-01-23T01:58:50.604Z,2.00
2018-01-23T02:01:20.162Z,1.83
2018-01-23T02:03:49.664Z,4.63
2018-01-23T02:06:19.128Z,1.63
2018-01-23T02:08:51.933Z,2.20
2018-01-23T02:11:21.753Z,6.93
2018-01-23T02:13:51.835Z,3.97
2018-01-23T02:16:21.374Z,8.00
2018-01-23T02:18:50.900Z,8.90
2018-01-23T02:21:20.602Z,3.90
2018-01-23T02:23:50.139Z,2.03
2018-01-23T02:26:19.763Z,1.50
2018-01-23T02:28:49.428Z,1.90
2018-01-23T02:31:18.949Z,1.77
2018-01-23T02:33:48.639Z,11.77
2018-01-23T02:36:18.214Z,9.37
2018-01-23T02:38:48.299Z,12.53
2018-01-23T02:41:17.780Z,9.30
2018-01-23T02:43:47.350Z,6.00
2018-01-23T02:46:29.657Z,4.07
2018-01-23T02:48:59.324Z,6.60
2018-01-23T02:51:28.830Z,6.30
2018-01-23T02:53:58.388Z,2.37
2018-01-23T02:56:27.957Z,3.37
2018-01-23T02:59:05.484Z,3.00
2018-01-23T03:01:35.579Z,1.70
2018-01-23T03:04:05.204Z,2.07
2018-01-23T03:06:35.585Z,1.60
2018-01-23T03:09:05.309Z,1.73
2018-01-23T03:11:34.864Z,6.40
2018-01-23T03:14:04.450Z,1.67
2018-01-23T03:16:34.101Z,2.13
2018-01-23T03:19:03.980Z,2.37
2018-01-23T03:21:33.589Z,1.70
2018-01-23T03:24:03.217Z,1.60
2018-01-23T03:26:32.764Z,1.90
2018-01-23T03:29:16.401Z,1.60
2018-01-23T03:31:45.901Z,2.20
2018-01-23T03:34:15.655Z,2.17
2018-01-23T03:36:51.597Z,1.93
2018-01-23T03:39:21.132Z,1.90
2018-01-23T03:41:50.638Z,2.87
2018-01-23T03:44:20.188Z,3.27
2018-01-23T03:46:56.024Z,1.80
2018-01-23T03:49:33.984Z,2.73
2018-01-23T03:52:03.916Z,2.30
2018-01-23T03:54:33.643Z,3.10
2018-01-23T03:57:03.168Z,2.20
2018-01-23T03:59:32.699Z,1.87
2018-01-23T04:02:02.322Z,1.83
2018-01-23T04:04:31.975Z,2.33
2018-01-23T04:07:01.808Z,3.10
2018-01-23T04:09:40.529Z,2.73
2018-01-23T04:12:10.067Z,2.87
2018-01-23T04:14:39.912Z,2.17
2018-01-23T04:17:09.517Z,2.40
2018-01-23T04:19:39.013Z,2.53
2018-01-23T04:22:09.677Z,2.07
2018-01-23T04:24:39.234Z,2.23
2018-01-23T04:27:09.088Z,4.10
2018-01-23T04:29:39.249Z,3.50
2018-01-23T04:32:09.032Z,3.10
2018-01-23T04:34:38.928Z,2.93
2018-01-23T04:37:16.275Z,4.47
2018-01-23T04:39:45.803Z,9.50
2018-01-23T04:42:15.724Z,1.80
2018-01-23T04:44:45.820Z,2.37
2018-01-23T04:47:15.356Z,1.67
2018-01-23T04:49:44.878Z,6.17
2018-01-23T04:52:14.372Z,6.03
2018-01-23T04:54:47.643Z,3.33
2018-01-23T04:57:17.164Z,2.70
2018-01-23T04:59:46.701Z,3.73
2018-01-23T05:02:18.092Z,7.67
2018-01-23T05:04:47.881Z,4.73
2018-01-23T05:07:18.832Z,3.40
2018-01-23T05:09:48.373Z,2.53
2018-01-23T05:12:17.889Z,4.73
2018-01-23T05:14:48.736Z,4.10
2018-01-23T05:17:19.653Z,15.40
2018-01-23T05:19:49.226Z,32.37
2018-01-23T05:22:18.805Z,23.03
2018-01-23T05:24:48.673Z,5.73
2018-01-23T05:27:18.221Z,3.00
2018-01-23T05:29:47.786Z,8.60
2018-01-23T05:32:17.295Z,10.97
2018-01-23T05:34:47.909Z,9.90
2018-01-23T05:37:17.409Z,17.87
2018-01-23T05:39:48.022Z,2.90
2018-01-23T05:42:19.566Z,3.67
2018-01-23T05:45:00.599Z,8.23
2018-01-23T05:47:47.181Z,14.33
2018-01-23T05:50:19.832Z,3.03
2018-01-23T05:52:49.541Z,10.13
2018-01-23T05:55:19.907Z,2.70
2018-01-23T05:57:49.829Z,4.67
2018-01-23T06:00:19.686Z,1.80
2018-01-23T06:02:49.232Z,5.07
2018-01-23T06:05:19.225Z,3.10
2018-01-23T06:07:48.943Z,3.30
2018-01-23T06:10:18.481Z,3.80
2018-01-23T06:12:48.010Z,2.27
2018-01-23T06:15:17.766Z,9.80
2018-01-23T06:17:47.309Z,2.20
2018-01-23T06:20:16.934Z,16.20
2018-01-23T06:22:47.525Z,2.43
2018-01-23T06:25:17.821Z,3.20
2018-01-23T06:27:47.449Z,2.20
2018-01-23T06:30:16.999Z,2.93
2018-01-23T06:32:46.525Z,10.63
2018-01-23T06:35:16.460Z,4.20
2018-01-23T06:37:51.973Z,4.77
2018-01-23T06:40:21.524Z,5.27
2018-01-23T06:42:52.743Z,5.40
2018-01-23T06:45:24.298Z,4.60
2018-01-23T06:47:53.872Z,2.87
2018-01-23T06:50:24.243Z,2.60
2018-01-23T06:52:54.189Z,3.93
2018-01-23T06:55:31.392Z,3.20
2018-01-23T06:58:01.214Z,2.00
2018-01-23T07:00:30.745Z,2.90
2018-01-23T07:03:02.180Z,3.43
2018-01-23T07:05:32.197Z,4.93
2018-01-23T07:08:02.077Z,1.77
2018-01-23T07:10:31.599Z,3.00
2018-01-23T07:13:01.377Z,3.50
2018-01-23T07:15:30.929Z,2.30
2018-01-23T07:18:00.535Z,3.83
2018-01-23T07:20:36.243Z,2.20
2018-01-23T07:23:05.788Z,5.33
2018-01-23T07:25:35.597Z,12.63
2018-01-23T07:28:05.187Z,4.10
2018-01-23T07:30:50.015Z,5.00
2018-01-23T07:33:19.508Z,2.70
2018-01-23T07:35:49.100Z,4.57
2018-01-23T07:38:18.610Z,10.23
2018-01-23T07:40:48.200Z,5.43
2018-01-23T07:43:17.794Z,12.53
2018-01-23T07:45:54.999Z,5.73
2018-01-23T07:48:24.544Z,3.00
2018-01-23T07:50:54.132Z,7.00
2018-01-23T07:53:26.722Z,6.33
2018-01-23T07:55:56.241Z,6.17
2018-01-23T07:58:25.797Z,6.07
2018-01-23T08:00:55.334Z,8.23
2018-01-23T08:03:25.328Z,5.30
2018-01-23T08:05:54.876Z,2.50
2018-01-23T08:08:25.380Z,2.03
2018-01-23T08:11:00.907Z,7.13
2018-01-23T08:13:30.427Z,12.80
2018-01-23T08:16:05.257Z,15.47
2018-01-23T08:18:34.816Z,5.10
2018-01-23T08:21:04.340Z,3.27
2018-01-23T08:23:34.459Z,4.80
2018-01-23T08:28:38.755Z,4.40
2018-01-23T08:31:08.337Z,3.03
2018-01-23T08:33:37.982Z,9.67
2018-01-23T08:36:07.851Z,7.00
2018-01-23T08:38:37.394Z,5.30
2018-01-23T08:41:07.310Z,8.90
2018-01-23T08:43:41.329Z,3.97
2018-01-23T08:46:10.884Z,7.53
2018-01-23T08:48:40.420Z,2.27
2018-01-23T08:51:09.897Z,3.20
2018-01-23T08:53:41.304Z,4.73
2018-01-23T08:56:16.882Z,3.70
2018-01-23T08:58:47.030Z,6.03
2018-01-23T09:01:16.832Z,4.97
2018-01-23T09:03:46.883Z,3.10
2018-01-23T09:06:22.445Z,5.03
2018-01-23T09:08:51.997Z,6.17
2018-01-23T09:11:21.544Z,5.77
2018-01-23T09:13:51.121Z,3.37
2018-01-23T09:16:21.191Z,3.10
2018-01-23T09:18:50.755Z,5.90
2018-01-23T09:21:26.057Z,3.53
2018-01-23T09:23:55.564Z,3.20
2018-01-23T09:26:25.072Z,5.63
2018-01-23T09:29:09.128Z,3.60
2018-01-23T09:31:38.634Z,4.93
2018-01-23T09:34:08.284Z,6.33
2018-01-23T09:36:41.622Z,7.23
2018-01-23T09:39:11.228Z,5.70
2018-01-23T09:41:41.291Z,5.80
2018-01-23T09:44:10.837Z,9.37
2018-01-23T09:46:40.804Z,9.60
2018-01-23T09:49:24.428Z,6.40
2018-01-23T09:51:54.609Z,11.63
2018-01-23T09:54:24.720Z,10.87
2018-01-23T09:56:54.271Z,8.87
2018-01-23T09:59:23.843Z,7.97
2018-01-23T10:01:53.365Z,9.27
2018-01-23T10:04:25.315Z,10.63
2018-01-23T10:06:54.843Z,10.23
2018-01-23T10:09:25.955Z,10.03
2018-01-23T10:11:55.966Z,11.33
2018-01-23T10:14:25.532Z,11.97
2018-01-23T10:16:56.676Z,11.13
2018-01-23T10:19:26.648Z,9.07
2018-01-23T10:21:56.715Z,8.10
2018-01-23T10:24:26.329Z,12.23
2018-01-23T10:26:55.857Z,10.57
2018-01-23T10:29:25.389Z,8.40
2018-01-23T10:31:54.880Z,13.77
2018-01-23T10:34:30.633Z,8.63
2018-01-23T10:37:00.165Z,10.13
2018-01-23T10:39:29.725Z,14.03
2018-01-23T10:41:59.287Z,10.03
2018-01-23T10:44:29.446Z,10.70
2018-01-23T10:46:58.986Z,9.90
2018-01-23T10:49:28.566Z,9.27
2018-01-23T10:51:58.271Z,10.60
2018-01-23T10:54:27.905Z,7.10
2018-01-23T10:56:57.684Z,12.13
2018-01-23T10:59:27.417Z,11.70
2018-01-23T11:01:57.537Z,9.30
2018-01-23T11:04:27.340Z,9.30
2018-01-23T11:06:57.136Z,8.57
2018-01-23T11:09:26.712Z,9.97
2018-01-23T11:11:56.209Z,20.87
2018-01-23T11:14:25.976Z,8.30
2018-01-23T11:16:55.707Z,7.47
2018-01-23T11:19:25.597Z,6.83
2018-01-23T11:22:01.143Z,7.70
2018-01-23T11:24:30.639Z,10.50
2018-01-23T11:27:00.545Z,7.80
2018-01-23T11:29:30.101Z,10.17
2018-01-23T11:32:00.268Z,6.83
2018-01-23T11:34:29.797Z,6.30
2018-01-23T11:36:59.356Z,9.33
2018-01-23T11:39:28.911Z,11.90
2018-01-23T11:41:58.488Z,7.43
2018-01-23T11:44:28.045Z,5.57
2018-01-23T11:46:57.557Z,5.20
2018-01-23T11:49:27.490Z,9.60
2018-01-23T11:51:57.036Z,10.13
2018-01-23T11:54:26.580Z,9.83
2018-01-23T11:56:56.101Z,6.60
2018-01-23T11:59:25.692Z,7.10
2018-01-23T12:01:55.754Z,10.50
2018-01-23T12:04:25.680Z,7.70
2018-01-23T12:06:55.222Z,14.30
2018-01-23T12:09:24.782Z,10.73
2018-01-23T12:12:08.707Z,7.37
2018-01-23T12:14:38.495Z,6.93
2018-01-23T12:17:08.010Z,9.10
2018-01-23T12:19:37.502Z,10.13
2018-01-23T12:22:07.022Z,8.77
2018-01-23T12:24:36.617Z,10.77
2018-01-23T12:27:06.169Z,8.20
2018-01-23T12:29:35.712Z,7.90
2018-01-23T12:32:05.233Z,6.53
2018-01-23T12:34:34.966Z,7.27
2018-01-23T12:37:12.515Z,8.50
2018-01-23T12:39:42.129Z,9.00
2018-01-23T12:42:11.624Z,7.87
2018-01-23T12:44:47.819Z,10.37
2018-01-23T12:47:17.392Z,13.37
2018-01-23T12:49:47.233Z,10.30
2018-01-23T12:52:28.790Z,10.13
2018-01-23T12:55:12.088Z,12.40
2018-01-23T12:57:41.595Z,11.23
2018-01-23T13:00:11.117Z,9.80
2018-01-23T13:02:40.643Z,14.03
2018-01-23T13:05:10.204Z,9.97
2018-01-23T13:07:41.646Z,14.63
2018-01-23T13:10:11.199Z,16.03
2018-01-23T13:12:40.727Z,9.63
2018-01-23T13:15:10.304Z,10.30
2018-01-23T13:17:39.835Z,11.50
2018-01-23T13:20:09.971Z,11.93
2018-01-23T13:22:39.567Z,6.93
2018-01-23T13:25:09.486Z,8.40
2018-01-23T13:27:39.021Z,14.03
2018-01-23T13:30:08.585Z,9.13
2018-01-23T13:32:38.821Z,9.93
2018-01-23T13:35:08.318Z,9.07
2018-01-23T13:37:53.221Z,8.53
2018-01-23T13:40:35.363Z,7.73
2018-01-23T13:43:05.871Z,9.33
2018-01-23T13:45:35.921Z,15.00
2018-01-23T13:48:05.419Z,8.30
2018-01-23T13:50:35.279Z,9.10
2018-01-23T13:53:04.864Z,9.37
2018-01-23T13:55:34.576Z,15.77
2018-01-23T13:58:04.109Z,6.37
2018-01-23T14:00:33.595Z,6.10
2018-01-23T14:03:03.276Z,5.20
2018-01-23T14:05:32.922Z,6.53
2018-01-23T14:08:02.416Z,5.43
2018-01-23T14:10:31.986Z,6.17
2018-01-23T14:13:01.545Z,5.73
2018-01-23T14:15:31.072Z,5.00
2018-01-23T14:18:02.185Z,5.07
2018-01-23T14:20:31.921Z,11.90
2018-01-23T14:23:01.481Z,5.70
2018-01-23T14:25:31.685Z,4.77
2018-01-23T14:28:01.253Z,8.40
2018-01-23T14:30:30.750Z,12.67
2018-01-23T14:33:00.257Z,4.57
2018-01-23T14:35:29.786Z,6.63
2018-01-23T14:37:59.676Z,5.23
2018-01-23T14:40:29.334Z,5.30
2018-01-23T14:43:05.627Z,5.83
2018-01-23T14:45:35.216Z,8.10
2018-01-23T14:48:04.735Z,5.70
2018-01-23T14:50:34.225Z,3.47
2018-01-23T14:53:03.799Z,8.20
2018-01-23T14:55:33.831Z,3.53
2018-01-23T14:58:03.364Z,2.50
2018-01-23T15:00:32.892Z,3.20
2018-01-23T15:03:12.132Z,4.20
2018-01-23T15:05:47.721Z,3.33
2018-01-23T15:08:17.279Z,4.33
2018-01-23T15:10:46.842Z,5.10
2018-01-23T15:13:16.636Z,4.03
2018-01-23T15:15:59.348Z,4.70
2018-01-23T15:18:28.880Z,3.33
2018-01-23T15:20:58.851Z,4.70
2018-01-23T15:23:28.592Z,7.70
2018-01-23T15:25:59.581Z,5.37
2018-01-23T15:28:29.118Z,7.27
2018-01-23T15:30:59.127Z,5.17
2018-01-23T15:33:28.658Z,7.03
2018-01-23T15:36:12.204Z,8.23
2018-01-23T15:38:42.515Z,6.13
2018-01-23T15:41:12.061Z,5.63
2018-01-23T15:43:41.727Z,6.13
2018-01-23T15:46:11.267Z,9.00
2018-01-23T15:48:53.133Z,6.90
2018-01-23T15:51:29.674Z,8.40
2018-01-23T15:54:05.223Z,5.73
2018-01-23T15:56:34.901Z,5.93
2018-01-23T15:59:04.667Z,13.73
2018-01-23T16:01:34.668Z,5.43
2018-01-23T16:04:04.182Z,5.93
2018-01-23T16:06:40.885Z,9.97
2018-01-23T16:09:10.397Z,7.60
2018-01-23T16:11:39.919Z,8.00
2018-01-23T16:14:16.048Z,8.90
2018-01-23T16:16:46.025Z,7.73
2018-01-23T16:19:15.539Z,8.17
2018-01-23T16:21:45.243Z,7.27
2018-01-23T16:24:14.805Z,4.80
2018-01-23T16:26:57.148Z,5.67
2018-01-23T16:29:26.692Z,7.63
2018-01-23T16:31:56.224Z,7.70
2018-01-23T16:34:25.828Z,6.20
2018-01-23T16:36:55.307Z,6.73
2018-01-23T16:39:24.844Z,4.80
2018-01-23T16:41:54.667Z,10.50
2018-01-23T16:44:37.940Z,9.93
2018-01-23T16:47:08.034Z,20.70
2018-01-23T16:49:37.969Z,11.13
2018-01-23T16:52:19.692Z,8.27
2018-01-23T16:54:51.536Z,4.20
2018-01-23T16:57:21.107Z,12.80
2018-01-23T16:59:50.868Z,15.00
2018-01-23T17:02:20.445Z,99.60
2018-01-23T17:04:50.019Z,59.10
2018-01-23T17:07:20.404Z,28.30
2018-01-23T17:09:49.956Z,14.30
2018-01-23T17:12:23.409Z,26.43
2018-01-23T17:14:53.453Z,20.80
2018-01-23T17:17:23.077Z,61.90
2018-01-23T17:19:52.612Z,44.37
2018-01-23T17:22:22.279Z,29.30
2018-01-23T17:24:52.359Z,18.33
2018-01-23T17:27:22.645Z,16.53
2018-01-23T17:29:52.153Z,13.83
2018-01-23T17:32:21.695Z,30.87
2018-01-23T17:34:51.217Z,28.13
2018-01-23T17:37:20.727Z,20.23
2018-01-23T17:39:50.281Z,25.13
2018-01-23T17:42:20.280Z,33.73
2018-01-23T17:44:51.586Z,58.40
2018-01-23T17:47:21.068Z,80.50
2018-01-23T17:49:57.868Z,15.40
2018-01-23T17:52:27.432Z,29.13
2018-01-23T17:54:57.376Z,40.97
2018-01-23T17:57:33.394Z,38.60
2018-01-23T18:00:03.023Z,46.47
2018-01-23T18:02:32.896Z,24.60
2018-01-23T18:05:02.416Z,28.67
2018-01-23T18:07:31.951Z,28.77
2018-01-23T18:10:01.544Z,11.33
2018-01-23T18:12:31.075Z,20.57
2018-01-23T18:15:00.825Z,6.70
2018-01-23T18:17:30.396Z,25.10
2018-01-23T18:19:59.972Z,35.37
2018-01-23T18:22:30.084Z,29.37
2018-01-23T18:25:14.570Z,7.77
2018-01-23T18:27:44.945Z,19.30
2018-01-23T18:30:28.732Z,29.13
2018-01-23T18:32:58.436Z,21.23
2018-01-23T18:35:28.087Z,25.50
2018-01-23T18:37:57.657Z,19.53
2018-01-23T18:40:27.208Z,68.03
2018-01-23T18:42:56.748Z,58.77
2018-01-23T18:45:26.713Z,40.43
2018-01-23T18:47:56.212Z,36.63
2018-01-23T18:50:25.753Z,32.30
2018-01-23T18:52:55.304Z,13.93
2018-01-23T18:55:25.289Z,36.13
2018-01-23T18:57:54.827Z,45.27
2018-01-23T19:00:24.335Z,32.90
2018-01-23T19:02:53.890Z,46.13
2018-01-23T19:05:23.602Z,27.13
2018-01-23T19:07:53.489Z,21.50
2018-01-23T19:10:35.718Z,50.63
2018-01-23T19:13:05.596Z,38.17
2018-01-23T19:15:35.762Z,24.93
2018-01-23T19:18:05.525Z,16.57
2018-01-23T19:20:35.069Z,12.33
2018-01-23T19:23:04.580Z,14.33
2018-01-23T19:25:34.089Z,20.77
2018-01-23T19:28:03.672Z,25.63
2018-01-23T19:30:33.235Z,41.43
2018-01-23T19:33:02.735Z,38.67
2018-01-23T19:35:32.236Z,21.70
2018-01-23T19:38:01.800Z,11.20
2018-01-23T19:40:31.345Z,42.40
2018-01-23T19:43:00.893Z,46.93
2018-01-23T19:45:30.379Z,19.10
2018-01-23T19:48:20.421Z,14.23
2018-01-23T19:50:50.452Z,20.13
2018-01-23T19:53:27.874Z,22.43
2018-01-23T19:55:57.406Z,15.73
2018-01-23T19:58:26.923Z,13.20
2018-01-23T20:00:56.448Z,10.27
2018-01-23T20:03:25.961Z,11.00
2018-01-23T20:05:55.501Z,9.80
2018-01-23T20:08:25.054Z,8.60
2018-01-23T20:11:02.299Z,10.20
2018-01-23T20:13:37.907Z,7.27
2018-01-23T20:16:07.712Z,9.23
2018-01-23T20:18:37.277Z,9.03
2018-01-23T20:21:06.818Z,9.33
2018-01-23T20:23:36.324Z,7.93
2018-01-23T20:26:05.797Z,12.60
2018-01-23T20:28:35.462Z,7.53
2018-01-23T20:31:04.950Z,7.87
2018-01-23T20:33:34.480Z,10.63
2018-01-23T20:36:04.017Z,18.33
2018-01-23T20:38:40.997Z,13.20
2018-01-23T20:41:10.538Z,8.00
2018-01-23T20:43:40.126Z,14.90
2018-01-23T20:46:10.064Z,14.27
2018-01-23T20:48:47.300Z,9.50
2018-01-23T20:51:16.823Z,10.03
2018-01-23T20:53:46.388Z,16.70
2018-01-23T20:56:16.540Z,8.97
2018-01-23T20:58:58.885Z,7.50
2018-01-23T21:01:41.102Z,8.00
2018-01-23T21:04:11.142Z,7.30
2018-01-23T21:06:41.236Z,4.90
2018-01-23T21:09:10.750Z,6.37
2018-01-23T21:11:40.220Z,5.80
2018-01-23T21:14:23.155Z,5.60
2018-01-23T21:16:52.732Z,6.97
2018-01-23T21:19:22.252Z,7.07
2018-01-23T21:21:51.890Z,6.67
2018-01-23T21:24:21.865Z,6.83
2018-01-23T21:26:57.563Z,10.80
2018-01-23T21:29:27.164Z,9.83
2018-01-23T21:31:57.374Z,7.87
2018-01-23T21:34:26.936Z,7.30
2018-01-23T21:36:56.424Z,7.07
2018-01-23T21:39:36.628Z,7.00
2018-01-23T21:42:06.173Z,10.73
2018-01-23T21:44:35.745Z,6.70
2018-01-23T21:47:05.295Z,8.23
2018-01-23T21:49:35.701Z,7.70
2018-01-23T21:52:05.220Z,8.27
2018-01-23T21:54:42.628Z,7.10
2018-01-23T21:57:12.180Z,12.37
2018-01-23T21:59:42.117Z,5.20
2018-01-23T22:02:11.655Z,7.13
2018-01-23T22:04:41.209Z,8.00
2018-01-23T22:07:10.791Z,4.97
2018-01-23T22:09:40.836Z,5.60
2018-01-23T22:12:10.319Z,4.90
2018-01-23T22:14:40.434Z,7.00
2018-01-23T22:17:10.007Z,6.27
2018-01-23T22:19:39.550Z,9.13
2018-01-23T22:22:09.036Z,6.90
2018-01-23T22:24:38.581Z,7.00
2018-01-23T22:27:08.336Z,6.03
2018-01-23T22:29:37.898Z,6.43
2018-01-23T22:32:07.439Z,5.57
2018-01-23T22:34:37.411Z,6.40
2018-01-23T22:37:07.163Z,6.10
2018-01-23T22:39:36.716Z,7.03
2018-01-23T22:42:06.719Z,8.60
2018-01-23T22:44:36.448Z,7.27
2018-01-23T22:47:07.361Z,7.00
2018-01-23T22:49:37.695Z,5.90
2018-01-23T22:52:07.240Z,6.80
2018-01-23T22:54:36.855Z,7.43
2018-01-23T22:57:06.388Z,6.43
2018-01-23T22:59:42.100Z,5.70
2018-01-23T23:02:26.029Z,8.30
2018-01-23T23:04:55.910Z,9.00
2018-01-23T23:07:25.470Z,7.07
2018-01-23T23:09:55.232Z,5.30
2018-01-23T23:12:25.209Z,7.33
2018-01-23T23:14:54.752Z,7.27
2018-01-23T23:17:24.243Z,7.27
2018-01-23T23:19:54.756Z,7.97
2018-01-23T23:22:24.517Z,6.50
2018-01-23T23:24:54.063Z,8.07
2018-01-23T23:27:23.590Z,8.00
2018-01-23T23:29:53.121Z,6.17
2018-01-23T23:32:22.775Z,6.73
2018-01-23T23:34:52.361Z,6.20
2018-01-23T23:37:21.896Z,11.67
2018-01-23T23:39:55.215Z,6.90
2018-01-23T23:42:25.835Z,7.23
2018-01-23T23:45:02.386Z,4.80
2018-01-23T23:47:31.942Z,6.60
2018-01-23T23:50:01.468Z,9.00
2018-01-23T23:52:30.991Z,7.50
2018-01-23T23:55:00.474Z,8.93
2018-01-23T23:57:44.435Z,8.80
